createdAt,value
2023-04-19T00:00:46.075Z,7.43
2023-04-19T00:03:44.261Z,7.78
2023-04-19T00:06:42.797Z,8.70
2023-04-19T00:09:41.010Z,7.38
2023-04-19T00:24:08.783Z,8.02
2023-04-19T00:27:06.739Z,7.22
2023-04-19T00:30:04.816Z,8.77
2023-04-19T00:33:02.824Z,7.70
2023-04-19T00:36:02.406Z,8.57
2023-04-19T00:39:00.323Z,7.82
2023-04-19T00:41:58.388Z,9.02
2023-04-19T00:44:56.272Z,10.27
2023-04-19T00:47:55.059Z,8.88
2023-04-19T00:50:53.005Z,9.52
2023-04-19T00:53:50.940Z,8.65
2023-04-19T00:56:48.878Z,10.35
2023-04-19T00:59:46.891Z,7.75
2023-04-19T01:02:44.885Z,7.00
2023-04-19T01:05:42.895Z,8.15
2023-04-19T01:08:41.513Z,7.85
2023-04-19T01:11:40.757Z,8.27
2023-04-19T01:14:40.472Z,8.93
2023-04-19T01:17:39.203Z,8.27
2023-04-19T01:20:37.166Z,8.85
2023-04-19T01:23:35.137Z,7.15
2023-04-19T01:26:33.039Z,10.10
2023-04-19T01:29:30.987Z,10.60
2023-04-19T01:32:29.024Z,7.50
2023-04-19T01:35:27.023Z,8.43
2023-04-19T01:38:24.989Z,7.22
2023-04-19T01:41:27.404Z,8.45
2023-04-19T01:44:25.375Z,9.43
2023-04-19T01:47:25.518Z,8.10
2023-04-19T01:50:23.417Z,9.85
2023-04-19T01:53:21.376Z,10.73
2023-04-19T01:56:19.524Z,9.32
2023-04-19T01:59:17.380Z,9.60
2023-04-19T02:02:15.320Z,10.13
2023-04-19T02:05:13.214Z,7.53
2023-04-19T02:08:11.474Z,9.82
2023-04-19T02:11:10.816Z,8.52
2023-04-19T02:14:08.710Z,7.53
2023-04-19T02:17:06.581Z,8.23
2023-04-19T02:20:05.389Z,9.25
2023-04-19T02:23:03.282Z,9.25
2023-04-19T02:26:03.739Z,7.05
2023-04-19T02:29:01.606Z,8.07
2023-04-19T02:31:59.594Z,8.52
2023-04-19T02:34:57.413Z,8.73
2023-04-19T02:37:55.406Z,9.38
2023-04-19T02:40:53.187Z,8.80
2023-04-19T02:43:51.135Z,7.15
2023-04-19T02:46:51.419Z,10.23
2023-04-19T02:49:49.347Z,8.90
2023-04-19T02:52:47.165Z,7.65
2023-04-19T02:55:45.216Z,8.05
2023-04-19T02:58:43.029Z,8.05
2023-04-19T03:01:40.997Z,11.27
2023-04-19T03:04:38.776Z,12.45
2023-04-19T03:07:37.142Z,11.70
2023-04-19T03:10:34.932Z,8.80
2023-04-19T03:13:32.897Z,11.38
2023-04-19T03:16:30.819Z,12.25
2023-04-19T03:19:29.116Z,12.77
2023-04-19T03:22:26.874Z,13.90
2023-04-19T03:25:24.812Z,12.00
2023-04-19T03:28:22.622Z,13.05
2023-04-19T03:31:20.778Z,14.77
2023-04-19T03:34:18.636Z,13.02
2023-04-19T03:37:16.633Z,13.10
2023-04-19T03:40:14.472Z,16.58
2023-04-19T03:43:12.377Z,14.10
2023-04-19T03:46:10.514Z,13.07
2023-04-19T03:49:08.461Z,13.93
2023-04-19T03:52:06.496Z,12.32
2023-04-19T03:55:04.684Z,13.57
2023-04-19T03:58:02.671Z,13.68
2023-04-19T04:01:01.878Z,16.50
2023-04-19T04:04:01.038Z,14.30
2023-04-19T04:07:00.390Z,14.80
2023-04-19T04:09:58.188Z,14.70
2023-04-19T04:12:56.114Z,16.63
2023-04-19T04:15:53.965Z,12.30
2023-04-19T04:18:51.888Z,14.27
2023-04-19T04:21:49.960Z,13.50
2023-04-19T04:24:48.014Z,17.95
2023-04-19T04:27:46.185Z,16.92
2023-04-19T04:30:44.167Z,21.02
2023-04-19T04:33:42.145Z,21.42
2023-04-19T04:36:40.059Z,17.63
2023-04-19T04:39:39.863Z,18.10
2023-04-19T04:42:38.294Z,18.52
2023-04-19T04:45:36.194Z,16.90
2023-04-19T04:48:34.247Z,20.98
2023-04-19T04:51:32.946Z,20.77
2023-04-19T04:54:30.967Z,24.65
2023-04-19T04:57:28.778Z,20.45
2023-04-19T05:00:27.049Z,21.98
2023-04-19T05:03:24.899Z,23.60
2023-04-19T05:06:22.876Z,22.27
2023-04-19T05:09:21.209Z,22.15
2023-04-19T05:12:19.160Z,25.88
2023-04-19T05:15:17.237Z,22.00
2023-04-19T05:18:15.121Z,22.02
2023-04-19T05:21:13.052Z,23.05
2023-04-19T05:24:10.960Z,21.20
2023-04-19T05:27:10.042Z,22.80
2023-04-19T05:30:08.429Z,22.42
2023-04-19T05:33:06.459Z,23.27
2023-04-19T05:36:04.981Z,34.35
2023-04-19T05:39:02.822Z,22.77
2023-04-19T05:42:01.215Z,18.55
2023-04-19T05:44:59.053Z,20.75
2023-04-19T05:47:56.979Z,21.67
2023-04-19T05:50:57.153Z,19.00
2023-04-19T05:53:57.159Z,21.65
2023-04-19T05:56:55.220Z,22.63
2023-04-19T05:59:53.243Z,27.85
2023-04-19T06:02:51.445Z,21.52
2023-04-19T06:05:49.598Z,21.70
2023-04-19T06:08:48.487Z,23.75
2023-04-19T06:11:50.896Z,24.73
2023-04-19T06:14:49.223Z,22.90
2023-04-19T06:17:47.157Z,23.02
2023-04-19T06:20:44.941Z,20.92
2023-04-19T06:23:42.767Z,20.30
2023-04-19T06:26:40.550Z,19.00
2023-04-19T06:29:38.549Z,20.65
2023-04-19T06:32:36.477Z,22.35
2023-04-19T06:35:34.496Z,24.40
2023-04-19T06:38:32.241Z,19.02
2023-04-19T06:41:30.253Z,23.70
2023-04-19T06:44:28.452Z,24.75
2023-04-19T06:47:26.451Z,24.85
2023-04-19T06:50:24.364Z,22.27
2023-04-19T06:53:22.318Z,21.13
2023-04-19T06:56:41.428Z,24.25
2023-04-19T06:59:40.477Z,20.60
2023-04-19T07:02:38.312Z,23.58
2023-04-19T07:05:37.608Z,26.25
2023-04-19T07:08:48.825Z,23.48
2023-04-19T07:11:48.531Z,24.00
2023-04-19T07:14:46.337Z,23.52
2023-04-19T07:17:44.959Z,25.35
2023-04-19T07:20:45.733Z,25.63
2023-04-19T07:23:43.569Z,24.17
2023-04-19T07:26:41.596Z,21.05
2023-04-19T07:29:39.618Z,24.08
2023-04-19T07:32:38.032Z,27.30
2023-04-19T07:35:36.650Z,20.58
2023-04-19T07:38:34.453Z,24.40
2023-04-19T07:41:33.704Z,24.60
2023-04-19T07:44:32.866Z,26.25
2023-04-19T07:47:31.922Z,22.83
2023-04-19T07:50:29.835Z,27.02
2023-04-19T07:53:28.089Z,27.02
2023-04-19T07:56:27.298Z,25.45
2023-04-19T07:59:25.440Z,26.42
2023-04-19T08:02:23.448Z,25.95
2023-04-19T08:05:21.740Z,25.02
2023-04-19T08:08:19.834Z,24.05
2023-04-19T08:11:17.735Z,26.65
2023-04-19T08:14:28.281Z,25.15
2023-04-19T08:17:41.389Z,29.98
2023-04-19T08:20:42.988Z,26.92
2023-04-19T08:23:47.734Z,25.50
2023-04-19T08:26:54.294Z,31.13
2023-04-19T08:29:52.388Z,29.42
2023-04-19T08:32:50.230Z,33.83
2023-04-19T08:35:48.177Z,30.75
2023-04-19T08:38:51.818Z,25.67
2023-04-19T08:42:07.041Z,23.83
2023-04-19T08:45:27.166Z,27.40
2023-04-19T08:48:28.157Z,27.55
2023-04-19T08:51:27.400Z,27.40
2023-04-19T08:54:26.809Z,29.75
2023-04-19T08:57:24.619Z,28.85
2023-04-19T09:00:22.758Z,30.00
2023-04-19T09:03:20.625Z,25.38
2023-04-19T09:06:18.993Z,28.02
2023-04-19T09:12:21.633Z,22.23
2023-04-19T09:15:37.790Z,28.05
2023-04-19T09:19:08.249Z,25.50
2023-04-19T09:22:14.352Z,29.73
2023-04-19T09:28:29.250Z,27.50
2023-04-19T09:31:47.931Z,25.48
2023-04-19T09:35:03.214Z,27.60
2023-04-19T09:38:06.616Z,25.95
2023-04-19T09:41:12.098Z,28.67
2023-04-19T09:44:44.536Z,25.88
2023-04-19T09:47:32.010Z,30.08
2023-04-19T09:50:31.886Z,22.98
2023-04-19T09:53:34.932Z,28.65
2023-04-19T09:56:33.154Z,25.02
2023-04-19T09:59:46.323Z,29.38
2023-04-19T10:02:45.749Z,25.88
2023-04-19T10:05:44.845Z,29.52
2023-04-19T10:08:44.250Z,28.95
2023-04-19T10:11:50.565Z,32.00
2023-04-19T10:14:50.974Z,28.75
2023-04-19T10:17:49.470Z,29.45
2023-04-19T10:20:57.516Z,28.38
2023-04-19T10:23:57.236Z,32.45
2023-04-19T10:27:12.944Z,29.08
2023-04-19T10:30:19.639Z,33.85
2023-04-19T10:33:30.103Z,33.10
2023-04-19T10:36:29.470Z,37.70
2023-04-19T10:39:42.349Z,31.33
2023-04-19T10:43:10.935Z,28.77
2023-04-19T10:46:15.031Z,31.05
2023-04-19T10:49:14.059Z,29.20
2023-04-19T10:52:30.165Z,30.30
2023-04-19T10:55:27.950Z,29.70
2023-04-19T10:58:25.907Z,31.52
2023-04-19T11:01:54.410Z,29.27
2023-04-19T11:05:01.183Z,36.80
2023-04-19T11:07:58.947Z,36.97
2023-04-19T11:10:58.360Z,35.10
2023-04-19T11:13:58.468Z,35.17
2023-04-19T11:16:56.351Z,37.78
2023-04-19T11:19:59.263Z,34.70
2023-04-19T11:23:01.510Z,35.83
2023-04-19T11:26:01.003Z,29.77
2023-04-19T11:28:59.994Z,30.25
2023-04-19T11:32:00.548Z,33.38
2023-04-19T11:34:58.846Z,32.05
2023-04-19T11:37:59.329Z,32.42
2023-04-19T11:41:06.045Z,32.08
2023-04-19T11:44:03.809Z,30.48
2023-04-19T11:47:04.038Z,28.08
2023-04-19T11:50:32.779Z,29.33
2023-04-19T11:53:32.785Z,33.67
2023-04-19T11:56:30.706Z,31.50
2023-04-19T11:59:29.656Z,33.88
2023-04-19T12:02:27.626Z,38.95
2023-04-19T12:05:25.870Z,36.53
2023-04-19T12:08:32.751Z,32.65
2023-04-19T12:11:46.920Z,28.58
2023-04-19T12:14:53.459Z,34.70
2023-04-19T12:18:06.755Z,31.90
2023-04-19T12:21:07.038Z,35.63
2023-04-19T12:24:05.079Z,38.03
2023-04-19T12:27:03.325Z,40.75
2023-04-19T12:34:49.558Z,37.90
2023-04-19T12:41:30.484Z,36.47
2023-04-19T12:44:31.007Z,29.30
2023-04-19T12:47:32.876Z,32.47
2023-04-19T12:50:33.409Z,37.97
2023-04-19T12:53:34.272Z,36.42
2023-04-19T12:56:34.756Z,35.47
2023-04-19T12:59:35.598Z,45.83
2023-04-19T13:02:37.753Z,43.13
2023-04-19T13:05:38.838Z,37.70
2023-04-19T13:08:46.214Z,37.40
2023-04-19T13:11:48.680Z,37.65
2023-04-19T13:14:53.429Z,37.83
2023-04-19T13:17:57.875Z,34.72
2023-04-19T13:20:58.426Z,34.75
2023-04-19T13:24:01.142Z,35.28
2023-04-19T13:27:02.161Z,34.28
2023-04-19T13:30:03.186Z,32.33
2023-04-19T13:33:05.187Z,31.52
2023-04-19T13:36:08.108Z,31.77
2023-04-19T13:39:08.687Z,33.30
2023-04-19T13:42:12.626Z,39.35
2023-04-19T13:45:13.539Z,36.13
2023-04-19T13:48:14.544Z,34.58
2023-04-19T13:51:15.094Z,31.35
2023-04-19T13:54:16.236Z,32.63
2023-04-19T13:57:16.933Z,33.58
2023-04-19T14:00:19.831Z,33.88
2023-04-19T14:03:20.928Z,30.23
2023-04-19T14:06:24.043Z,43.92
2023-04-19T14:09:24.730Z,57.55
2023-04-19T14:12:25.619Z,54.65
2023-04-19T14:15:27.410Z,50.92
2023-04-19T14:18:28.447Z,50.25
2023-04-19T14:21:30.200Z,56.40
2023-04-19T14:24:31.192Z,42.97
2023-04-19T14:27:31.753Z,40.95
2023-04-19T14:30:35.944Z,37.92
2023-04-19T14:33:40.442Z,32.28
2023-04-19T14:36:41.298Z,32.63
2023-04-19T14:39:41.862Z,33.78
2023-04-19T14:42:42.852Z,38.67
2023-04-19T14:45:46.587Z,32.53
2023-04-19T14:48:47.613Z,34.10
2023-04-19T14:51:48.148Z,35.70
2023-04-19T14:54:49.041Z,34.85
2023-04-19T14:57:49.556Z,35.63
2023-04-19T15:00:50.432Z,32.42
2023-04-19T15:03:51.527Z,33.60
2023-04-19T15:06:49.915Z,33.60
2023-04-19T15:09:47.820Z,34.17
2023-04-19T15:12:46.634Z,31.75
2023-04-19T15:15:44.476Z,31.85
2023-04-19T15:18:42.473Z,33.42
2023-04-19T15:21:40.401Z,28.05
2023-04-19T15:24:38.876Z,35.22
2023-04-19T15:27:37.157Z,35.70
2023-04-19T15:30:35.096Z,39.50
2023-04-19T15:33:33.885Z,44.80
2023-04-19T15:36:32.604Z,42.22
2023-04-19T15:39:30.393Z,39.15
2023-04-19T15:42:28.325Z,43.65
2023-04-19T15:45:26.368Z,37.40
2023-04-19T15:48:24.365Z,43.28
2023-04-19T15:51:37.466Z,38.38
2023-04-19T15:54:38.226Z,41.88
2023-04-19T15:57:36.170Z,44.65
2023-04-19T16:00:34.188Z,40.45
2023-04-19T16:03:32.617Z,37.08
2023-04-19T16:06:30.634Z,36.53
2023-04-19T16:09:28.591Z,41.38
2023-04-19T16:12:27.589Z,39.08
2023-04-19T16:15:25.475Z,43.65
2023-04-19T16:18:23.396Z,37.70
2023-04-19T16:21:21.360Z,37.92
2023-04-19T16:24:19.286Z,41.05
2023-04-19T16:27:17.089Z,38.72
2023-04-19T16:30:16.164Z,39.90
2023-04-19T16:33:14.078Z,39.92
2023-04-19T16:36:12.052Z,37.30
2023-04-19T16:39:09.784Z,38.58
2023-04-19T16:42:07.738Z,43.03
2023-04-19T16:45:06.861Z,39.88
2023-04-19T16:48:04.984Z,40.97
2023-04-19T16:51:02.862Z,38.70
2023-04-19T16:54:00.805Z,37.50
2023-04-19T16:56:58.574Z,41.38
2023-04-19T16:59:56.599Z,40.53
2023-04-19T17:02:54.637Z,42.97
2023-04-19T17:05:52.836Z,40.80
2023-04-19T17:08:50.685Z,35.63
2023-04-19T17:11:48.608Z,38.97
2023-04-19T17:14:46.498Z,41.75
2023-04-19T17:17:44.495Z,38.08
2023-04-19T17:20:42.420Z,39.75
2023-04-19T17:23:40.271Z,45.30
2023-04-19T17:26:38.093Z,39.20
2023-04-19T17:29:36.247Z,40.60
2023-04-19T17:32:34.523Z,45.60
2023-04-19T17:35:33.193Z,45.60
2023-04-19T17:38:31.051Z,47.65
2023-04-19T17:41:28.995Z,45.50
2023-04-19T17:44:27.416Z,42.00
2023-04-19T17:47:25.411Z,46.53
2023-04-19T17:50:23.297Z,42.60
2023-04-19T17:53:21.202Z,44.08
2023-04-19T17:56:19.472Z,50.47
2023-04-19T17:59:17.749Z,50.05
2023-04-19T18:02:15.955Z,50.17
2023-04-19T18:05:15.000Z,50.95
2023-04-19T18:08:14.013Z,49.08
2023-04-19T18:11:12.224Z,48.58
2023-04-19T18:14:10.116Z,51.28
2023-04-19T18:17:08.685Z,54.78
2023-04-19T18:20:07.421Z,52.80
2023-04-19T18:23:05.438Z,49.15
2023-04-19T18:26:04.498Z,50.00
2023-04-19T18:29:02.439Z,53.75
2023-04-19T18:32:00.251Z,50.22
2023-04-19T18:34:58.166Z,47.67
2023-04-19T18:37:56.079Z,49.10
2023-04-19T18:40:53.912Z,55.70
2023-04-19T18:44:19.204Z,48.55
2023-04-19T18:47:09.594Z,53.50
2023-04-19T18:50:08.999Z,49.53
2023-04-19T18:53:06.872Z,58.53
2023-04-19T18:56:05.866Z,59.83
2023-04-19T18:59:04.598Z,51.65
2023-04-19T19:02:02.624Z,52.97
2023-04-19T19:05:02.267Z,51.67
2023-04-19T19:08:00.499Z,49.40
2023-04-19T19:13:59.697Z,49.25
2023-04-19T19:16:58.008Z,49.80
2023-04-19T19:19:55.917Z,49.15
2023-04-19T19:22:54.405Z,47.97
2023-04-19T19:25:52.747Z,47.25
2023-04-19T19:28:50.669Z,44.63
2023-04-19T19:31:48.557Z,48.63
2023-04-19T19:34:55.664Z,49.92
2023-04-19T19:37:58.640Z,44.15
2023-04-19T19:43:57.208Z,53.03
2023-04-19T19:46:56.185Z,53.92
2023-04-19T19:50:45.602Z,53.03
2023-04-19T19:53:13.410Z,55.35
2023-04-19T19:56:18.978Z,55.55
2023-04-19T19:59:20.690Z,60.85
2023-04-19T20:02:19.185Z,53.22
2023-04-19T20:05:17.481Z,57.80
2023-04-19T20:08:15.504Z,51.30
2023-04-19T20:11:13.476Z,52.10
2023-04-19T20:14:11.293Z,53.33
2023-04-19T20:17:09.215Z,55.20
2023-04-19T20:20:09.434Z,49.03
2023-04-19T20:23:07.544Z,53.58
2023-04-19T20:26:06.350Z,53.80
2023-04-19T20:29:04.329Z,53.17
2023-04-19T20:32:02.150Z,53.33
2023-04-19T20:35:00.754Z,52.95
2023-04-19T20:38:03.119Z,58.15
2023-04-19T20:41:01.026Z,52.40
2023-04-19T20:44:00.246Z,50.88
2023-04-19T20:46:58.136Z,56.72
2023-04-19T20:49:56.053Z,54.90
2023-04-19T20:52:54.009Z,51.47
2023-04-19T20:55:51.973Z,56.10
2023-04-19T20:58:50.036Z,53.17
2023-04-19T21:01:47.966Z,50.05
2023-04-19T21:04:45.954Z,56.13
2023-04-19T21:07:44.101Z,57.20
2023-04-19T21:10:42.014Z,50.95
2023-04-19T21:13:39.912Z,54.15
2023-04-19T21:16:37.814Z,55.47
2023-04-19T21:19:37.146Z,46.40
2023-04-19T21:22:35.021Z,50.80
2023-04-19T21:25:32.815Z,51.13
2023-04-19T21:28:30.843Z,50.92
2023-04-19T21:31:28.718Z,50.85
2023-04-19T21:34:26.736Z,51.83
2023-04-19T21:37:24.539Z,50.60
2023-04-19T21:40:22.745Z,50.25
2023-04-19T21:43:20.544Z,53.15
2023-04-19T21:46:18.443Z,52.72
2023-04-19T21:49:16.448Z,52.22
2023-04-19T21:52:14.514Z,50.95
2023-04-19T21:55:12.365Z,48.53
2023-04-19T21:58:10.244Z,45.85
2023-04-19T22:01:08.021Z,51.28
2023-04-19T22:04:07.165Z,50.72
2023-04-19T22:07:05.531Z,47.03
2023-04-19T22:10:03.733Z,53.05
2023-04-19T22:13:03.951Z,51.28
2023-04-19T22:16:02.898Z,46.92
2023-04-19T22:19:01.825Z,53.20
2023-04-19T22:21:59.823Z,50.10
2023-04-19T22:24:58.582Z,46.97
2023-04-19T22:27:56.650Z,48.55
2023-04-19T22:30:54.476Z,49.88
2023-04-19T22:33:52.499Z,48.30
2023-04-19T22:36:50.279Z,45.00
2023-04-19T22:39:48.165Z,50.47
2023-04-19T22:42:46.124Z,51.40
2023-04-19T22:45:48.419Z,46.22
2023-04-19T22:48:48.069Z,47.13
2023-04-19T22:51:46.581Z,44.65
2023-04-19T22:54:44.364Z,47.17
2023-04-19T22:57:44.295Z,41.10
2023-04-19T23:00:42.144Z,45.85
2023-04-19T23:03:40.037Z,43.03
2023-04-19T23:06:37.811Z,39.72
2023-04-19T23:09:39.545Z,43.17
2023-04-19T23:12:37.655Z,40.92
2023-04-19T23:15:35.701Z,41.65
2023-04-19T23:18:33.489Z,47.20
2023-04-19T23:21:32.227Z,42.47
2023-04-19T23:24:29.962Z,39.22
2023-04-19T23:27:27.851Z,38.80
2023-04-19T23:30:25.984Z,40.83
2023-04-19T23:33:23.963Z,40.38
2023-04-19T23:36:21.912Z,39.80
2023-04-19T23:39:20.121Z,43.08
2023-04-19T23:42:18.237Z,43.15
2023-04-19T23:45:16.161Z,42.95
2023-04-19T23:48:13.940Z,42.40
2023-04-19T23:51:13.164Z,43.10
2023-04-19T23:54:11.187Z,43.72
2023-04-19T23:57:09.084Z,48.67
